sensor_id;sensor_type;location;lat;lon;timestamp;P1;durP1;ratioP1;P2;durP2;ratioP2
72406;SDS011;60396;47.550;18.828;2022-10-17T00:00:48;11.23;;;3.67;;
72406;SDS011;60396;47.550;18.828;2022-10-17T00:03:16;10.02;;;3.72;;
72406;SDS011;60396;47.550;18.828;2022-10-17T00:05:44;9.20;;;3.95;;
72406;SDS011;60396;47.550;18.828;2022-10-17T00:08:14;12.77;;;4.37;;
72406;SDS011;60396;47.550;18.828;2022-10-17T00:10:42;11.68;;;4.32;;
72406;SDS011;60396;47.550;18.828;2022-10-17T00:13:10;14.53;;;4.37;;
72406;SDS011;60396;47.550;18.828;2022-10-17T00:15:41;12.57;;;4.55;;
72406;SDS011;60396;47.550;18.828;2022-10-17T00:18:10;11.20;;;3.87;;
72406;SDS011;60396;47.550;18.828;2022-10-17T00:20:37;12.13;;;4.78;;
72406;SDS011;60396;47.550;18.828;2022-10-17T00:23:05;12.52;;;4.35;;
72406;SDS011;60396;47.550;18.828;2022-10-17T00:25:32;14.07;;;4.70;;
72406;SDS011;60396;47.550;18.828;2022-10-17T00:28:00;11.95;;;4.65;;
72406;SDS011;60396;47.550;18.828;2022-10-17T00:30:27;12.25;;;4.40;;
72406;SDS011;60396;47.550;18.828;2022-10-17T00:32:55;14.05;;;4.50;;
72406;SDS011;60396;47.550;18.828;2022-10-17T00:35:23;12.40;;;4.03;;
72406;SDS011;60396;47.550;18.828;2022-10-17T00:37:50;13.53;;;3.93;;
72406;SDS011;60396;47.550;18.828;2022-10-17T00:40:18;13.07;;;3.70;;
72406;SDS011;60396;47.550;18.828;2022-10-17T00:42:46;11.70;;;3.47;;
72406;SDS011;60396;47.550;18.828;2022-10-17T00:45:19;9.32;;;3.75;;
72406;SDS011;60396;47.550;18.828;2022-10-17T00:48:00;10.75;;;4.03;;
72406;SDS011;60396;47.550;18.828;2022-10-17T00:50:30;15.87;;;4.63;;
72406;SDS011;60396;47.550;18.828;2022-10-17T00:52:59;12.82;;;4.35;;
72406;SDS011;60396;47.550;18.828;2022-10-17T00:55:29;10.35;;;3.97;;
72406;SDS011;60396;47.550;18.828;2022-10-17T00:57:59;15.48;;;4.15;;
72406;SDS011;60396;47.550;18.828;2022-10-17T01:00:29;11.32;;;3.95;;
72406;SDS011;60396;47.550;18.828;2022-10-17T01:02:57;9.77;;;4.67;;
72406;SDS011;60396;47.550;18.828;2022-10-17T01:05:25;13.10;;;4.30;;
72406;SDS011;60396;47.550;18.828;2022-10-17T01:07:52;11.12;;;5.15;;
72406;SDS011;60396;47.550;18.828;2022-10-17T01:10:20;11.75;;;5.05;;
72406;SDS011;60396;47.550;18.828;2022-10-17T01:15:49;11.73;;;4.30;;
72406;SDS011;60396;47.550;18.828;2022-10-17T01:19:07;10.65;;;4.47;;
72406;SDS011;60396;47.550;18.828;2022-10-17T01:21:23;12.75;;;4.45;;
72406;SDS011;60396;47.550;18.828;2022-10-17T01:32:30;12.02;;;4.90;;
72406;SDS011;60396;47.550;18.828;2022-10-17T01:35:03;13.32;;;5.07;;
72406;SDS011;60396;47.550;18.828;2022-10-17T01:37:45;12.18;;;5.35;;
72406;SDS011;60396;47.550;18.828;2022-10-17T01:40:19;12.65;;;3.83;;
72406;SDS011;60396;47.550;18.828;2022-10-17T01:45:45;12.32;;;4.30;;
72406;SDS011;60396;47.550;18.828;2022-10-17T01:48:16;8.32;;;3.78;;
72406;SDS011;60396;47.550;18.828;2022-10-17T01:50:50;11.07;;;4.00;;
72406;SDS011;60396;47.550;18.828;2022-10-17T01:53:33;12.05;;;4.00;;
72406;SDS011;60396;47.550;18.828;2022-10-17T01:56:05;10.53;;;4.10;;
72406;SDS011;60396;47.550;18.828;2022-10-17T01:58:35;9.27;;;4.22;;
72406;SDS011;60396;47.550;18.828;2022-10-17T02:01:06;13.98;;;4.75;;
72406;SDS011;60396;47.550;18.828;2022-10-17T02:03:36;9.55;;;4.37;;
72406;SDS011;60396;47.550;18.828;2022-10-17T02:06:05;13.85;;;4.90;;
72406;SDS011;60396;47.550;18.828;2022-10-17T02:11:43;11.98;;;4.72;;
72406;SDS011;60396;47.550;18.828;2022-10-17T02:23:00;13.47;;;5.10;;
72406;SDS011;60396;47.550;18.828;2022-10-17T02:25:34;12.25;;;3.95;;
72406;SDS011;60396;47.550;18.828;2022-10-17T02:28:34;9.75;;;4.37;;
72406;SDS011;60396;47.550;18.828;2022-10-17T02:31:19;11.23;;;4.53;;
72406;SDS011;60396;47.550;18.828;2022-10-17T02:33:51;13.60;;;5.30;;
72406;SDS011;60396;47.550;18.828;2022-10-17T02:36:49;10.20;;;4.37;;
72406;SDS011;60396;47.550;18.828;2022-10-17T02:39:21;10.18;;;4.60;;
72406;SDS011;60396;47.550;18.828;2022-10-17T02:41:50;12.20;;;5.80;;
72406;SDS011;60396;47.550;18.828;2022-10-17T02:44:18;14.07;;;4.25;;
72406;SDS011;60396;47.550;18.828;2022-10-17T02:46:53;10.30;;;4.68;;
72406;SDS011;60396;47.550;18.828;2022-10-17T02:49:27;11.47;;;4.73;;
72406;SDS011;60396;47.550;18.828;2022-10-17T02:54:44;18.10;;;4.90;;
72406;SDS011;60396;47.550;18.828;2022-10-17T02:57:17;13.70;;;4.80;;
72406;SDS011;60396;47.550;18.828;2022-10-17T03:00:06;10.40;;;4.57;;
72406;SDS011;60396;47.550;18.828;2022-10-17T03:02:40;11.77;;;4.97;;
72406;SDS011;60396;47.550;18.828;2022-10-17T03:05:09;14.73;;;4.68;;
72406;SDS011;60396;47.550;18.828;2022-10-17T03:07:38;11.15;;;4.75;;
72406;SDS011;60396;47.550;18.828;2022-10-17T03:10:05;11.73;;;4.37;;
72406;SDS011;60396;47.550;18.828;2022-10-17T03:12:33;12.80;;;4.70;;
72406;SDS011;60396;47.550;18.828;2022-10-17T03:15:01;12.20;;;4.63;;
72406;SDS011;60396;47.550;18.828;2022-10-17T03:17:30;11.30;;;4.18;;
72406;SDS011;60396;47.550;18.828;2022-10-17T03:19:58;12.50;;;4.25;;
72406;SDS011;60396;47.550;18.828;2022-10-17T03:22:26;10.90;;;4.45;;
72406;SDS011;60396;47.550;18.828;2022-10-17T03:24:54;11.77;;;4.50;;
72406;SDS011;60396;47.550;18.828;2022-10-17T03:27:22;12.93;;;5.00;;
72406;SDS011;60396;47.550;18.828;2022-10-17T03:29:50;16.05;;;6.10;;
72406;SDS011;60396;47.550;18.828;2022-10-17T03:32:18;16.40;;;6.43;;
72406;SDS011;60396;47.550;18.828;2022-10-17T03:34:46;12.15;;;6.25;;
72406;SDS011;60396;47.550;18.828;2022-10-17T03:37:13;14.40;;;6.53;;
72406;SDS011;60396;47.550;18.828;2022-10-17T03:39:41;17.87;;;6.73;;
72406;SDS011;60396;47.550;18.828;2022-10-17T03:42:09;15.88;;;7.43;;
72406;SDS011;60396;47.550;18.828;2022-10-17T03:44:36;20.70;;;9.00;;
72406;SDS011;60396;47.550;18.828;2022-10-17T03:47:04;14.80;;;7.40;;
72406;SDS011;60396;47.550;18.828;2022-10-17T03:49:37;16.20;;;7.30;;
72406;SDS011;60396;47.550;18.828;2022-10-17T03:52:04;15.70;;;7.37;;
72406;SDS011;60396;47.550;18.828;2022-10-17T03:54:32;18.25;;;7.10;;
72406;SDS011;60396;47.550;18.828;2022-10-17T03:57:00;16.55;;;6.60;;
72406;SDS011;60396;47.550;18.828;2022-10-17T03:59:27;19.58;;;6.40;;
72406;SDS011;60396;47.550;18.828;2022-10-17T04:01:57;16.08;;;5.93;;
72406;SDS011;60396;47.550;18.828;2022-10-17T04:04:24;11.67;;;5.63;;
72406;SDS011;60396;47.550;18.828;2022-10-17T04:06:52;13.40;;;5.85;;
72406;SDS011;60396;47.550;18.828;2022-10-17T04:09:20;15.55;;;5.12;;
72406;SDS011;60396;47.550;18.828;2022-10-17T04:11:48;14.30;;;5.72;;
72406;SDS011;60396;47.550;18.828;2022-10-17T04:14:16;13.80;;;5.20;;
72406;SDS011;60396;47.550;18.828;2022-10-17T04:16:43;11.80;;;5.37;;
72406;SDS011;60396;47.550;18.828;2022-10-17T04:19:12;14.60;;;5.60;;
72406;SDS011;60396;47.550;18.828;2022-10-17T04:21:40;15.32;;;5.35;;
72406;SDS011;60396;47.550;18.828;2022-10-17T04:24:07;14.13;;;5.50;;
72406;SDS011;60396;47.550;18.828;2022-10-17T04:26:37;12.57;;;5.37;;
72406;SDS011;60396;47.550;18.828;2022-10-17T04:29:05;17.00;;;5.37;;
72406;SDS011;60396;47.550;18.828;2022-10-17T04:31:32;12.43;;;5.70;;
72406;SDS011;60396;47.550;18.828;2022-10-17T04:34:00;13.45;;;5.57;;
72406;SDS011;60396;47.550;18.828;2022-10-17T04:36:28;14.82;;;5.78;;
72406;SDS011;60396;47.550;18.828;2022-10-17T04:38:56;15.07;;;5.45;;
72406;SDS011;60396;47.550;18.828;2022-10-17T04:41:24;11.73;;;5.13;;
72406;SDS011;60396;47.550;18.828;2022-10-17T04:43:52;12.82;;;5.25;;
72406;SDS011;60396;47.550;18.828;2022-10-17T04:46:19;11.85;;;5.15;;
72406;SDS011;60396;47.550;18.828;2022-10-17T04:48:47;11.18;;;5.07;;
72406;SDS011;60396;47.550;18.828;2022-10-17T04:51:16;12.50;;;5.07;;
72406;SDS011;60396;47.550;18.828;2022-10-17T04:53:51;14.10;;;4.70;;
72406;SDS011;60396;47.550;18.828;2022-10-17T04:56:20;14.65;;;5.50;;
72406;SDS011;60396;47.550;18.828;2022-10-17T04:58:49;12.95;;;5.05;;
72406;SDS011;60396;47.550;18.828;2022-10-17T05:01:18;12.90;;;4.80;;
72406;SDS011;60396;47.550;18.828;2022-10-17T05:03:48;9.88;;;4.68;;
72406;SDS011;60396;47.550;18.828;2022-10-17T05:06:20;14.73;;;4.40;;
72406;SDS011;60396;47.550;18.828;2022-10-17T05:08:52;13.68;;;4.90;;
72406;SDS011;60396;47.550;18.828;2022-10-17T05:11:23;10.85;;;4.40;;
72406;SDS011;60396;47.550;18.828;2022-10-17T05:13:53;15.10;;;4.32;;
72406;SDS011;60396;47.550;18.828;2022-10-17T05:16:23;11.57;;;4.30;;
72406;SDS011;60396;47.550;18.828;2022-10-17T05:18:52;16.73;;;4.57;;
72406;SDS011;60396;47.550;18.828;2022-10-17T05:21:21;13.55;;;4.10;;
72406;SDS011;60396;47.550;18.828;2022-10-17T05:23:51;11.57;;;4.28;;
72406;SDS011;60396;47.550;18.828;2022-10-17T05:26:19;10.95;;;3.62;;
72406;SDS011;60396;47.550;18.828;2022-10-17T05:28:47;12.43;;;4.30;;
72406;SDS011;60396;47.550;18.828;2022-10-17T05:31:16;16.03;;;5.07;;
72406;SDS011;60396;47.550;18.828;2022-10-17T05:33:44;11.32;;;4.65;;
72406;SDS011;60396;47.550;18.828;2022-10-17T05:36:12;13.32;;;5.45;;
72406;SDS011;60396;47.550;18.828;2022-10-17T05:38:40;16.40;;;5.35;;
72406;SDS011;60396;47.550;18.828;2022-10-17T05:41:08;12.30;;;4.55;;
72406;SDS011;60396;47.550;18.828;2022-10-17T05:43:36;11.70;;;4.93;;
72406;SDS011;60396;47.550;18.828;2022-10-17T05:46:05;14.35;;;5.25;;
72406;SDS011;60396;47.550;18.828;2022-10-17T05:48:33;15.73;;;5.40;;
72406;SDS011;60396;47.550;18.828;2022-10-17T05:51:02;15.10;;;6.28;;
72406;SDS011;60396;47.550;18.828;2022-10-17T05:53:32;13.68;;;5.97;;
72406;SDS011;60396;47.550;18.828;2022-10-17T05:56:03;40.80;;;7.97;;
72406;SDS011;60396;47.550;18.828;2022-10-17T05:58:32;16.52;;;5.22;;
72406;SDS011;60396;47.550;18.828;2022-10-17T06:01:20;15.68;;;4.32;;
72406;SDS011;60396;47.550;18.828;2022-10-17T06:03:48;24.37;;;6.70;;
72406;SDS011;60396;47.550;18.828;2022-10-17T06:06:19;11.48;;;5.18;;
72406;SDS011;60396;47.550;18.828;2022-10-17T06:08:47;12.00;;;5.07;;
72406;SDS011;60396;47.550;18.828;2022-10-17T06:11:16;11.65;;;4.35;;
72406;SDS011;60396;47.550;18.828;2022-10-17T06:13:44;12.90;;;4.47;;
72406;SDS011;60396;47.550;18.828;2022-10-17T06:16:12;9.85;;;3.90;;
72406;SDS011;60396;47.550;18.828;2022-10-17T06:18:40;14.77;;;4.40;;
72406;SDS011;60396;47.550;18.828;2022-10-17T06:21:08;12.83;;;4.50;;
72406;SDS011;60396;47.550;18.828;2022-10-17T06:23:38;12.40;;;4.10;;
72406;SDS011;60396;47.550;18.828;2022-10-17T06:26:06;10.35;;;4.78;;
72406;SDS011;60396;47.550;18.828;2022-10-17T06:28:34;12.88;;;4.60;;
72406;SDS011;60396;47.550;18.828;2022-10-17T06:31:03;14.50;;;4.05;;
72406;SDS011;60396;47.550;18.828;2022-10-17T07:15:59;18.48;;;4.80;;
72406;SDS011;60396;47.550;18.828;2022-10-17T07:18:29;10.83;;;4.67;;
72406;SDS011;60396;47.550;18.828;2022-10-17T07:20:56;10.27;;;4.40;;
72406;SDS011;60396;47.550;18.828;2022-10-17T07:23:24;10.20;;;4.40;;
72406;SDS011;60396;47.550;18.828;2022-10-17T07:25:57;10.05;;;4.60;;
72406;SDS011;60396;47.550;18.828;2022-10-17T07:28:26;10.82;;;4.60;;
72406;SDS011;60396;47.550;18.828;2022-10-17T07:30:55;13.70;;;4.90;;
72406;SDS011;60396;47.550;18.828;2022-10-17T07:33:30;12.70;;;4.75;;
72406;SDS011;60396;47.550;18.828;2022-10-17T07:35:58;10.32;;;4.43;;
72406;SDS011;60396;47.550;18.828;2022-10-17T07:38:26;10.35;;;4.62;;
72406;SDS011;60396;47.550;18.828;2022-10-17T07:40:56;10.23;;;4.45;;
72406;SDS011;60396;47.550;18.828;2022-10-17T07:43:25;11.67;;;4.73;;
72406;SDS011;60396;47.550;18.828;2022-10-17T07:45:53;11.52;;;4.62;;
72406;SDS011;60396;47.550;18.828;2022-10-17T07:48:21;10.82;;;4.47;;
72406;SDS011;60396;47.550;18.828;2022-10-17T07:50:50;10.73;;;4.20;;
72406;SDS011;60396;47.550;18.828;2022-10-17T07:53:18;9.75;;;4.10;;
72406;SDS011;60396;47.550;18.828;2022-10-17T07:55:45;12.40;;;4.40;;
72406;SDS011;60396;47.550;18.828;2022-10-17T07:58:14;14.57;;;4.68;;
72406;SDS011;60396;47.550;18.828;2022-10-17T08:00:41;10.93;;;4.45;;
72406;SDS011;60396;47.550;18.828;2022-10-17T08:03:09;8.63;;;4.00;;
72406;SDS011;60396;47.550;18.828;2022-10-17T08:05:37;9.15;;;4.37;;
72406;SDS011;60396;47.550;18.828;2022-10-17T08:08:05;12.07;;;4.30;;
72406;SDS011;60396;47.550;18.828;2022-10-17T08:10:32;11.35;;;4.47;;
72406;SDS011;60396;47.550;18.828;2022-10-17T08:13:00;11.82;;;4.90;;
72406;SDS011;60396;47.550;18.828;2022-10-17T08:15:27;10.20;;;4.43;;
72406;SDS011;60396;47.550;18.828;2022-10-17T08:17:58;10.32;;;3.83;;
72406;SDS011;60396;47.550;18.828;2022-10-17T08:20:26;12.83;;;5.00;;
72406;SDS011;60396;47.550;18.828;2022-10-17T08:22:53;11.23;;;4.60;;
72406;SDS011;60396;47.550;18.828;2022-10-17T08:25:22;16.15;;;4.40;;
72406;SDS011;60396;47.550;18.828;2022-10-17T08:27:49;12.68;;;4.28;;
72406;SDS011;60396;47.550;18.828;2022-10-17T08:30:17;10.13;;;4.32;;
72406;SDS011;60396;47.550;18.828;2022-10-17T08:32:45;10.60;;;4.40;;
72406;SDS011;60396;47.550;18.828;2022-10-17T08:35:12;8.85;;;4.20;;
72406;SDS011;60396;47.550;18.828;2022-10-17T08:37:40;12.18;;;5.03;;
72406;SDS011;60396;47.550;18.828;2022-10-17T08:40:13;10.38;;;4.20;;
72406;SDS011;60396;47.550;18.828;2022-10-17T08:48:01;9.68;;;4.07;;
72406;SDS011;60396;47.550;18.828;2022-10-17T08:50:48;12.73;;;3.65;;
72406;SDS011;60396;47.550;18.828;2022-10-17T08:55:45;9.57;;;4.03;;
72406;SDS011;60396;47.550;18.828;2022-10-17T08:58:16;10.03;;;4.47;;
72406;SDS011;60396;47.550;18.828;2022-10-17T09:01:01;12.07;;;4.22;;
72406;SDS011;60396;47.550;18.828;2022-10-17T09:03:50;18.15;;;4.68;;
72406;SDS011;60396;47.550;18.828;2022-10-17T09:06:41;10.70;;;3.90;;
72406;SDS011;60396;47.550;18.828;2022-10-17T09:17:53;8.55;;;3.90;;
72406;SDS011;60396;47.550;18.828;2022-10-17T09:20:24;14.23;;;4.57;;
72406;SDS011;60396;47.550;18.828;2022-10-17T09:23:28;8.63;;;4.30;;
72406;SDS011;60396;47.550;18.828;2022-10-17T09:26:36;8.80;;;3.87;;
72406;SDS011;60396;47.550;18.828;2022-10-17T09:29:10;10.35;;;4.15;;
72406;SDS011;60396;47.550;18.828;2022-10-17T09:32:07;10.50;;;4.50;;
72406;SDS011;60396;47.550;18.828;2022-10-17T09:34:31;9.93;;;4.20;;
72406;SDS011;60396;47.550;18.828;2022-10-17T09:36:59;13.10;;;4.50;;
72406;SDS011;60396;47.550;18.828;2022-10-17T09:39:27;10.30;;;4.27;;
72406;SDS011;60396;47.550;18.828;2022-10-17T09:41:59;13.90;;;3.70;;
72406;SDS011;60396;47.550;18.828;2022-10-17T09:44:35;8.88;;;4.00;;
72406;SDS011;60396;47.550;18.828;2022-10-17T09:49:47;12.07;;;3.95;;
72406;SDS011;60396;47.550;18.828;2022-10-17T09:52:16;12.40;;;4.10;;
72406;SDS011;60396;47.550;18.828;2022-10-17T09:54:48;9.65;;;3.87;;
72406;SDS011;60396;47.550;18.828;2022-10-17T09:57:17;9.10;;;3.75;;
72406;SDS011;60396;47.550;18.828;2022-10-17T09:59:56;12.23;;;4.03;;
72406;SDS011;60396;47.550;18.828;2022-10-17T10:02:29;10.02;;;4.10;;
72406;SDS011;60396;47.550;18.828;2022-10-17T10:05:03;9.43;;;4.20;;
72406;SDS011;60396;47.550;18.828;2022-10-17T10:07:37;13.82;;;4.87;;
72406;SDS011;60396;47.550;18.828;2022-10-17T10:10:06;9.45;;;3.55;;
72406;SDS011;60396;47.550;18.828;2022-10-17T10:13:06;12.37;;;4.05;;
72406;SDS011;60396;47.550;18.828;2022-10-17T10:15:43;11.20;;;4.00;;
72406;SDS011;60396;47.550;18.828;2022-10-17T10:21:08;8.25;;;3.45;;
72406;SDS011;60396;47.550;18.828;2022-10-17T10:23:40;10.32;;;3.70;;
72406;SDS011;60396;47.550;18.828;2022-10-17T10:28:56;11.07;;;3.78;;
72406;SDS011;60396;47.550;18.828;2022-10-17T10:31:30;11.20;;;4.10;;
72406;SDS011;60396;47.550;18.828;2022-10-17T10:34:01;8.65;;;3.95;;
72406;SDS011;60396;47.550;18.828;2022-10-17T10:40:13;9.27;;;3.70;;
72406;SDS011;60396;47.550;18.828;2022-10-17T10:42:19;10.57;;;3.83;;
72406;SDS011;60396;47.550;18.828;2022-10-17T10:44:57;13.00;;;3.73;;
72406;SDS011;60396;47.550;18.828;2022-10-17T10:47:28;15.00;;;4.10;;
72406;SDS011;60396;47.550;18.828;2022-10-17T10:50:14;13.32;;;3.83;;
72406;SDS011;60396;47.550;18.828;2022-10-17T10:52:45;16.58;;;3.58;;
72406;SDS011;60396;47.550;18.828;2022-10-17T10:55:39;14.77;;;4.40;;
72406;SDS011;60396;47.550;18.828;2022-10-17T10:58:55;14.60;;;4.13;;
72406;SDS011;60396;47.550;18.828;2022-10-17T11:07:07;10.00;;;3.80;;
72406;SDS011;60396;47.550;18.828;2022-10-17T11:12:21;8.23;;;3.67;;
72406;SDS011;60396;47.550;18.828;2022-10-17T11:14:57;11.80;;;3.58;;
72406;SDS011;60396;47.550;18.828;2022-10-17T11:18:04;9.68;;;3.20;;
72406;SDS011;60396;47.550;18.828;2022-10-17T11:25:48;8.83;;;3.20;;
72406;SDS011;60396;47.550;18.828;2022-10-17T11:28:18;14.80;;;3.78;;
72406;SDS011;60396;47.550;18.828;2022-10-17T11:30:53;12.50;;;3.55;;
72406;SDS011;60396;47.550;18.828;2022-10-17T11:33:28;9.45;;;3.33;;
72406;SDS011;60396;47.550;18.828;2022-10-17T11:36:14;8.15;;;3.08;;
72406;SDS011;60396;47.550;18.828;2022-10-17T11:38:47;8.20;;;3.70;;
72406;SDS011;60396;47.550;18.828;2022-10-17T11:41:26;11.75;;;3.47;;
72406;SDS011;60396;47.550;18.828;2022-10-17T11:43:58;13.20;;;3.42;;
72406;SDS011;60396;47.550;18.828;2022-10-17T11:46:31;15.77;;;3.58;;
72406;SDS011;60396;47.550;18.828;2022-10-17T11:49:12;7.82;;;3.20;;
72406;SDS011;60396;47.550;18.828;2022-10-17T11:51:47;10.07;;;3.87;;
72406;SDS011;60396;47.550;18.828;2022-10-17T11:54:32;7.55;;;3.20;;
72406;SDS011;60396;47.550;18.828;2022-10-17T12:02:26;8.75;;;4.00;;
72406;SDS011;60396;47.550;18.828;2022-10-17T12:04:58;11.40;;;3.57;;
72406;SDS011;60396;47.550;18.828;2022-10-17T12:07:48;8.77;;;4.05;;
72406;SDS011;60396;47.550;18.828;2022-10-17T12:10:28;10.13;;;4.18;;
72406;SDS011;60396;47.550;18.828;2022-10-17T12:15:57;7.78;;;3.58;;
72406;SDS011;60396;47.550;18.828;2022-10-17T12:18:45;11.17;;;3.50;;
72406;SDS011;60396;47.550;18.828;2022-10-17T12:21:14;10.40;;;3.30;;
72406;SDS011;60396;47.550;18.828;2022-10-17T12:23:49;10.00;;;3.80;;
72406;SDS011;60396;47.550;18.828;2022-10-17T12:26:25;11.63;;;3.72;;
72406;SDS011;60396;47.550;18.828;2022-10-17T12:28:55;9.23;;;4.05;;
72406;SDS011;60396;47.550;18.828;2022-10-17T12:31:23;8.07;;;3.60;;
72406;SDS011;60396;47.550;18.828;2022-10-17T12:34:00;10.02;;;3.85;;
72406;SDS011;60396;47.550;18.828;2022-10-17T12:52:16;10.85;;;3.80;;
72406;SDS011;60396;47.550;18.828;2022-10-17T12:54:59;10.75;;;5.05;;
72406;SDS011;60396;47.550;18.828;2022-10-17T12:57:46;11.23;;;5.50;;
72406;SDS011;60396;47.550;18.828;2022-10-17T13:00:17;10.57;;;3.65;;
72406;SDS011;60396;47.550;18.828;2022-10-17T13:02:46;16.52;;;4.30;;
72406;SDS011;60396;47.550;18.828;2022-10-17T13:05:20;10.23;;;4.00;;
72406;SDS011;60396;47.550;18.828;2022-10-17T13:07:53;10.43;;;3.80;;
72406;SDS011;60396;47.550;18.828;2022-10-17T13:10:23;12.93;;;3.97;;
72406;SDS011;60396;47.550;18.828;2022-10-17T13:12:57;8.18;;;3.83;;
72406;SDS011;60396;47.550;18.828;2022-10-17T13:15:30;11.57;;;3.78;;
72406;SDS011;60396;47.550;18.828;2022-10-17T13:18:00;10.00;;;3.25;;
72406;SDS011;60396;47.550;18.828;2022-10-17T13:20:28;10.35;;;3.65;;
72406;SDS011;60396;47.550;18.828;2022-10-17T13:22:58;9.83;;;3.57;;
72406;SDS011;60396;47.550;18.828;2022-10-17T13:25:26;7.85;;;3.72;;
72406;SDS011;60396;47.550;18.828;2022-10-17T13:28:10;10.35;;;3.83;;
72406;SDS011;60396;47.550;18.828;2022-10-17T13:30:44;8.35;;;3.40;;
72406;SDS011;60396;47.550;18.828;2022-10-17T13:33:17;8.93;;;3.45;;
72406;SDS011;60396;47.550;18.828;2022-10-17T13:35:54;9.37;;;3.90;;
72406;SDS011;60396;47.550;18.828;2022-10-17T13:38:29;15.82;;;3.80;;
72406;SDS011;60396;47.550;18.828;2022-10-17T13:40:59;12.25;;;3.40;;
72406;SDS011;60396;47.550;18.828;2022-10-17T13:43:48;9.60;;;3.50;;
72406;SDS011;60396;47.550;18.828;2022-10-17T13:46:27;8.90;;;3.35;;
72406;SDS011;60396;47.550;18.828;2022-10-17T13:49:39;9.23;;;3.40;;
72406;SDS011;60396;47.550;18.828;2022-10-17T13:52:06;8.73;;;3.45;;
72406;SDS011;60396;47.550;18.828;2022-10-17T13:54:42;14.63;;;3.28;;
72406;SDS011;60396;47.550;18.828;2022-10-17T13:57:16;11.25;;;3.35;;
72406;SDS011;60396;47.550;18.828;2022-10-17T13:59:44;8.65;;;3.37;;
72406;SDS011;60396;47.550;18.828;2022-10-17T14:02:15;13.10;;;4.20;;
72406;SDS011;60396;47.550;18.828;2022-10-17T14:04:46;10.07;;;3.12;;
72406;SDS011;60396;47.550;18.828;2022-10-17T14:13:00;10.88;;;3.03;;
72406;SDS011;60396;47.550;18.828;2022-10-17T14:15:31;12.40;;;3.50;;
72406;SDS011;60396;47.550;18.828;2022-10-17T14:18:02;9.60;;;3.28;;
72406;SDS011;60396;47.550;18.828;2022-10-17T14:20:34;7.97;;;3.12;;
72406;SDS011;60396;47.550;18.828;2022-10-17T14:23:30;7.93;;;3.15;;
72406;SDS011;60396;47.550;18.828;2022-10-17T14:28:37;10.23;;;3.70;;
72406;SDS011;60396;47.550;18.828;2022-10-17T14:31:10;10.90;;;3.20;;
72406;SDS011;60396;47.550;18.828;2022-10-17T14:33:44;7.85;;;2.78;;
72406;SDS011;60396;47.550;18.828;2022-10-17T14:36:18;9.35;;;3.70;;
72406;SDS011;60396;47.550;18.828;2022-10-17T14:38:48;9.30;;;3.40;;
72406;SDS011;60396;47.550;18.828;2022-10-17T14:41:20;10.50;;;3.00;;
72406;SDS011;60396;47.550;18.828;2022-10-17T14:44:17;7.45;;;2.83;;
72406;SDS011;60396;47.550;18.828;2022-10-17T14:46:48;12.95;;;3.40;;
72406;SDS011;60396;47.550;18.828;2022-10-17T14:49:27;9.68;;;3.10;;
72406;SDS011;60396;47.550;18.828;2022-10-17T14:54:48;9.00;;;3.23;;
72406;SDS011;60396;47.550;18.828;2022-10-17T14:59:50;18.33;;;4.15;;
72406;SDS011;60396;47.550;18.828;2022-10-17T15:02:24;9.05;;;3.05;;
72406;SDS011;60396;47.550;18.828;2022-10-17T15:04:53;7.87;;;3.28;;
72406;SDS011;60396;47.550;18.828;2022-10-17T15:07:21;7.37;;;2.90;;
72406;SDS011;60396;47.550;18.828;2022-10-17T15:09:51;12.13;;;3.53;;
72406;SDS011;60396;47.550;18.828;2022-10-17T15:12:21;9.48;;;3.15;;
72406;SDS011;60396;47.550;18.828;2022-10-17T15:14:51;12.25;;;3.08;;
72406;SDS011;60396;47.550;18.828;2022-10-17T15:17:22;10.48;;;3.33;;
72406;SDS011;60396;47.550;18.828;2022-10-17T15:19:54;12.97;;;3.50;;
72406;SDS011;60396;47.550;18.828;2022-10-17T15:22:22;9.48;;;3.67;;
72406;SDS011;60396;47.550;18.828;2022-10-17T15:24:49;8.38;;;3.35;;
72406;SDS011;60396;47.550;18.828;2022-10-17T15:27:18;10.50;;;3.35;;
72406;SDS011;60396;47.550;18.828;2022-10-17T15:29:50;11.75;;;3.25;;
72406;SDS011;60396;47.550;18.828;2022-10-17T15:32:19;11.63;;;3.17;;
72406;SDS011;60396;47.550;18.828;2022-10-17T15:34:46;13.10;;;3.40;;
72406;SDS011;60396;47.550;18.828;2022-10-17T15:37:21;9.70;;;3.20;;
72406;SDS011;60396;47.550;18.828;2022-10-17T15:39:51;15.70;;;3.25;;
72406;SDS011;60396;47.550;18.828;2022-10-17T15:42:21;11.07;;;3.78;;
72406;SDS011;60396;47.550;18.828;2022-10-17T15:44:52;14.20;;;3.97;;
72406;SDS011;60396;47.550;18.828;2022-10-17T15:49:51;12.02;;;3.35;;
72406;SDS011;60396;47.550;18.828;2022-10-17T15:52:20;15.98;;;3.67;;
72406;SDS011;60396;47.550;18.828;2022-10-17T15:54:48;13.40;;;3.37;;
72406;SDS011;60396;47.550;18.828;2022-10-17T15:57:19;15.53;;;3.80;;
72406;SDS011;60396;47.550;18.828;2022-10-17T15:59:50;11.50;;;3.70;;
72406;SDS011;60396;47.550;18.828;2022-10-17T16:02:18;10.55;;;3.47;;
72406;SDS011;60396;47.550;18.828;2022-10-17T16:04:47;13.93;;;3.22;;
72406;SDS011;60396;47.550;18.828;2022-10-17T16:07:16;9.38;;;3.05;;
72406;SDS011;60396;47.550;18.828;2022-10-17T16:09:46;11.33;;;3.60;;
72406;SDS011;60396;47.550;18.828;2022-10-17T16:12:21;11.95;;;3.50;;
72406;SDS011;60396;47.550;18.828;2022-10-17T16:14:53;10.27;;;3.00;;
72406;SDS011;60396;47.550;18.828;2022-10-17T16:17:21;9.45;;;3.80;;
72406;SDS011;60396;47.550;18.828;2022-10-17T16:19:49;12.45;;;3.25;;
72406;SDS011;60396;47.550;18.828;2022-10-17T16:22:22;9.57;;;3.47;;
72406;SDS011;60396;47.550;18.828;2022-10-17T16:24:54;8.73;;;3.90;;
72406;SDS011;60396;47.550;18.828;2022-10-17T16:27:25;11.32;;;3.60;;
72406;SDS011;60396;47.550;18.828;2022-10-17T16:29:55;12.63;;;3.60;;
72406;SDS011;60396;47.550;18.828;2022-10-17T16:32:23;10.23;;;3.50;;
72406;SDS011;60396;47.550;18.828;2022-10-17T16:34:51;12.00;;;3.17;;
72406;SDS011;60396;47.550;18.828;2022-10-17T16:37:18;12.27;;;3.00;;
72406;SDS011;60396;47.550;18.828;2022-10-17T16:39:48;12.55;;;3.87;;
72406;SDS011;60396;47.550;18.828;2022-10-17T16:42:19;10.27;;;3.70;;
72406;SDS011;60396;47.550;18.828;2022-10-17T16:44:47;9.48;;;3.60;;
72406;SDS011;60396;47.550;18.828;2022-10-17T16:47:16;12.50;;;3.50;;
72406;SDS011;60396;47.550;18.828;2022-10-17T16:49:44;15.10;;;3.55;;
72406;SDS011;60396;47.550;18.828;2022-10-17T16:52:12;16.50;;;3.50;;
72406;SDS011;60396;47.550;18.828;2022-10-17T16:54:39;10.00;;;3.70;;
72406;SDS011;60396;47.550;18.828;2022-10-17T16:57:07;10.60;;;3.28;;
72406;SDS011;60396;47.550;18.828;2022-10-17T16:59:35;8.53;;;3.33;;
72406;SDS011;60396;47.550;18.828;2022-10-17T17:02:03;9.98;;;3.40;;
72406;SDS011;60396;47.550;18.828;2022-10-17T17:04:30;11.50;;;3.30;;
72406;SDS011;60396;47.550;18.828;2022-10-17T17:06:58;9.10;;;4.05;;
72406;SDS011;60396;47.550;18.828;2022-10-17T17:09:25;7.43;;;3.05;;
72406;SDS011;60396;47.550;18.828;2022-10-17T17:11:53;9.00;;;3.70;;
72406;SDS011;60396;47.550;18.828;2022-10-17T17:14:21;9.02;;;3.45;;
72406;SDS011;60396;47.550;18.828;2022-10-17T17:16:48;10.27;;;3.72;;
72406;SDS011;60396;47.550;18.828;2022-10-17T17:19:16;9.55;;;3.10;;
72406;SDS011;60396;47.550;18.828;2022-10-17T17:21:44;10.18;;;3.97;;
72406;SDS011;60396;47.550;18.828;2022-10-17T17:24:16;11.40;;;3.50;;